Main page
METAR-TAF:

METAR-TAF

Airports :

Golden Triangle Regional Airport

Columbus / West Point / Starkville, Mississippi, United States

latitude: 33-27N, longitude: 088-35W, elevation: 262 ft

Current weather observation

The report was made 50 minutes ago, at 01:56 UTC
Wind 3 mph from the North
Temperature 84°F
Humidity 66%
Pressure 29.91 in. Hg
Visibility: 10 miles
Clear sky

METAR: KGTR 250156Z AUTO 36003KT 10SM CLR 29/22 A2991 RMK AO2 SLP131 T02890217

Time: 21:46 (02:46 UTC)

Forecast

The report was made 2 hours and 57 minutes ago, at 23:49 UTC
Forecast valid from 25 at 00 UTC to 25 at 24 UTC
Wind 5 mph from variable directions
Visibility: 6 miles
Few clouds at a height of 6000 ft

TAF: KGTR 242349Z 2500/2524 VRB04KT P6SM FEW060

Weather observations and forecasts of more than 4000 airports (METAR and TAF reports).

The available stations are represented by yellow and red dots on the map.

Hover mouse over dot to see the name of the station.

Then click to see weather observations and forecasts.

To change the map : click on the green buttons with a black cross to zoom in, on the green button with a dash to zoom out, or on the green arrows for adjacent maps.


METAR-TAF: